createdAt,value
2023-03-15T00:01:21.094Z,98540.22
2023-03-15T00:03:51.810Z,98542.04
2023-03-15T00:06:22.615Z,98550.25
2023-03-15T00:08:53.757Z,98555.19
2023-03-15T00:11:24.704Z,98557.55
2023-03-15T00:13:55.401Z,98567.77
2023-03-15T00:16:27.376Z,98571.17
2023-03-15T00:18:58.924Z,98577.61
2023-03-15T00:21:30.011Z,98578.95
2023-03-15T00:24:00.851Z,98580.59
2023-03-15T00:26:31.887Z,98584.05
2023-03-15T00:29:02.625Z,98592.14
2023-03-15T00:31:33.615Z,98598.52
2023-03-15T00:34:05.067Z,98601.66
2023-03-15T00:36:35.871Z,98610.50
2023-03-15T00:39:06.755Z,98622.41
2023-03-15T00:41:38.273Z,98660.35
2023-03-15T00:44:09.124Z,98679.13
2023-03-15T00:46:40.134Z,98701.63
2023-03-15T00:49:11.981Z,98721.10
2023-03-15T00:51:42.764Z,98739.63
2023-03-15T00:54:15.008Z,98746.82
2023-03-15T00:56:45.707Z,98759.46
2023-03-15T00:59:16.432Z,98777.42
2023-03-15T01:01:48.152Z,98784.21
2023-03-15T01:04:18.892Z,98798.71
2023-03-15T01:06:49.639Z,98816.00
2023-03-15T01:09:20.347Z,98832.81
2023-03-15T01:11:51.262Z,98840.15
2023-03-15T01:14:22.069Z,98851.77
2023-03-15T01:16:52.859Z,98866.36
2023-03-15T01:19:24.746Z,98878.55
2023-03-15T01:21:57.220Z,98888.08
2023-03-15T01:24:29.521Z,98906.48
2023-03-15T01:27:00.770Z,98913.63
2023-03-15T01:29:32.306Z,98926.84
2023-03-15T01:32:03.864Z,98929.70
2023-03-15T01:34:35.309Z,98934.58
2023-03-15T01:37:06.867Z,98951.70
2023-03-15T01:39:43.658Z,98965.06
2023-03-15T01:42:14.528Z,98973.33
2023-03-15T01:45:00.085Z,98987.55
2023-03-15T01:47:32.934Z,98998.54
2023-03-15T01:50:08.129Z,98992.20
2023-03-15T01:52:42.919Z,98992.65
2023-03-15T01:55:22.469Z,99003.15
2023-03-15T01:58:15.429Z,99019.27
2023-03-15T02:00:47.691Z,99038.05
2023-03-15T02:03:23.020Z,99043.08
2023-03-15T02:05:58.713Z,99054.16
2023-03-15T02:08:47.986Z,99067.77
2023-03-15T02:11:21.765Z,99084.61
2023-03-15T02:13:53.920Z,99094.48
2023-03-15T02:16:26.310Z,99105.19
2023-03-15T02:19:02.439Z,99115.52
2023-03-15T02:21:47.771Z,99127.89
2023-03-15T02:24:28.915Z,99137.05
2023-03-15T02:27:00.104Z,99143.48
2023-03-15T02:29:31.777Z,99142.30
2023-03-15T02:32:04.667Z,99145.55
2023-03-15T02:34:35.530Z,99155.38
2023-03-15T02:37:07.014Z,99171.48
2023-03-15T02:39:37.811Z,99176.77
2023-03-15T02:42:08.872Z,99188.31
2023-03-15T02:44:41.229Z,99197.30
2023-03-15T02:47:16.617Z,99199.85
2023-03-15T02:49:51.682Z,99209.01
2023-03-15T02:52:23.168Z,99214.75
2023-03-15T02:54:54.384Z,99225.77
2023-03-15T02:57:25.263Z,99230.85
2023-03-15T03:00:00.687Z,99230.17
2023-03-15T03:02:31.564Z,99237.97
2023-03-15T03:05:02.245Z,99236.61
2023-03-15T03:07:33.976Z,99241.02
2023-03-15T03:10:08.328Z,99257.45
2023-03-15T03:12:47.830Z,99266.42
2023-03-15T03:15:18.983Z,99284.22
2023-03-15T03:17:49.914Z,99284.55
2023-03-15T03:20:21.560Z,99288.45
2023-03-15T03:22:52.345Z,99284.21
2023-03-15T03:25:27.445Z,99284.04
2023-03-15T03:27:57.358Z,99288.93
2023-03-15T03:30:28.268Z,99302.14
2023-03-15T03:32:59.132Z,99311.63
2023-03-15T03:35:29.850Z,99310.95
2023-03-15T03:38:00.721Z,99312.27
2023-03-15T03:40:38.877Z,99316.85
2023-03-15T03:43:11.054Z,99323.45
2023-03-15T03:45:41.762Z,99331.59
2023-03-15T03:48:12.879Z,99331.42
2023-03-15T03:50:43.609Z,99330.91
2023-03-15T03:53:14.303Z,99334.99
2023-03-15T03:55:46.548Z,99337.70
2023-03-15T03:58:20.550Z,99343.13
2023-03-15T04:00:58.279Z,99348.70
2023-03-15T04:03:29.293Z,99352.44
2023-03-15T04:06:09.525Z,99360.23
2023-03-15T04:08:44.115Z,99365.14
2023-03-15T04:11:18.767Z,99373.09
2023-03-15T04:13:55.567Z,99383.59
2023-03-15T04:16:26.401Z,99388.84
2023-03-15T04:19:08.957Z,99395.79
2023-03-15T04:21:47.683Z,99400.02
2023-03-15T04:24:42.632Z,99406.47
2023-03-15T04:27:28.640Z,99408.84
2023-03-15T04:30:11.775Z,99408.67
2023-03-15T04:32:42.646Z,99408.50
2023-03-15T04:35:30.773Z,99409.19
2023-03-15T04:38:35.580Z,99421.06
2023-03-15T04:41:36.433Z,99427.85
2023-03-15T04:44:16.835Z,99430.07
2023-03-15T04:47:06.837Z,99431.09
2023-03-15T04:49:55.396Z,99434.99
2023-03-15T04:52:29.325Z,99443.45
2023-03-15T04:55:06.614Z,99442.96
2023-03-15T04:57:54.339Z,99439.56
2023-03-15T05:00:48.187Z,99444.65
2023-03-15T05:03:41.074Z,99447.88
2023-03-15T05:06:23.676Z,99457.20
2023-03-15T05:09:18.011Z,99462.80
2023-03-15T05:12:08.133Z,99473.65
2023-03-15T05:14:54.430Z,99480.27
2023-03-15T05:17:46.576Z,99482.45
2023-03-15T05:20:59.127Z,99488.56
2023-03-15T05:23:42.852Z,99491.77
2023-03-15T05:26:36.268Z,99497.55
2023-03-15T05:29:26.187Z,99503.14
2023-03-15T05:32:08.965Z,99504.15
2023-03-15T05:34:55.614Z,99510.08
2023-03-15T05:37:54.960Z,99513.13
2023-03-15T05:41:04.449Z,99514.83
2023-03-15T05:43:54.188Z,99520.42
2023-03-15T05:46:34.077Z,99520.42
2023-03-15T05:49:23.421Z,99522.30
2023-03-15T05:52:03.972Z,99538.39
2023-03-15T05:54:58.035Z,99546.02
2023-03-15T05:57:47.556Z,99550.09
2023-03-15T06:00:38.802Z,99564.69
2023-03-15T06:03:12.471Z,99575.19
2023-03-15T06:05:57.263Z,99580.95
2023-03-15T06:08:35.789Z,99582.14
2023-03-15T06:11:06.599Z,99582.13
2023-03-15T06:13:38.010Z,99583.31
2023-03-15T06:16:13.282Z,99582.81
2023-03-15T06:18:47.416Z,99583.33
2023-03-15T06:21:18.744Z,99587.22
2023-03-15T06:23:49.597Z,99589.59
2023-03-15T06:26:23.034Z,99593.14
2023-03-15T06:28:55.379Z,99603.65
2023-03-15T06:31:27.045Z,99605.02
2023-03-15T06:34:05.052Z,99611.45
2023-03-15T06:36:38.783Z,99615.86
2023-03-15T06:39:11.830Z,99616.19
2023-03-15T06:41:43.994Z,99627.73
2023-03-15T06:44:20.450Z,99646.02
2023-03-15T06:46:55.532Z,99656.52
2023-03-15T06:49:26.682Z,99661.96
2023-03-15T06:51:57.627Z,99674.49
2023-03-15T06:54:28.514Z,99684.68
2023-03-15T06:56:59.914Z,99687.05
2023-03-15T06:59:30.815Z,99686.03
2023-03-15T07:02:01.618Z,99691.80
2023-03-15T07:04:32.484Z,99698.75
2023-03-15T07:07:03.398Z,99711.47
2023-03-15T07:09:34.164Z,99708.75
2023-03-15T07:12:05.121Z,99703.17
2023-03-15T07:14:37.827Z,99705.89
2023-03-15T07:17:08.807Z,99715.22
2023-03-15T07:19:50.210Z,99720.47
2023-03-15T07:22:25.009Z,99722.49
2023-03-15T07:24:55.858Z,99717.07
2023-03-15T07:27:26.743Z,99720.95
2023-03-15T07:29:57.615Z,99721.11
2023-03-15T07:32:28.983Z,99719.58
2023-03-15T07:35:00.795Z,99719.91
2023-03-15T07:37:31.922Z,99725.69
2023-03-15T07:40:09.839Z,99726.73
2023-03-15T07:42:41.445Z,99725.20
2023-03-15T07:45:13.577Z,99725.86
2023-03-15T07:47:44.354Z,99728.58
2023-03-15T07:50:17.322Z,99728.41
2023-03-15T07:52:48.255Z,99731.45
2023-03-15T07:55:19.217Z,99731.11
2023-03-15T07:57:52.867Z,99737.54
2023-03-15T08:00:25.489Z,99744.48
2023-03-15T08:02:56.414Z,99751.63
2023-03-15T08:05:29.126Z,99758.75
2023-03-15T08:08:00.547Z,99766.39
2023-03-15T08:10:31.777Z,99769.09
2023-03-15T08:13:02.609Z,99774.00
2023-03-15T08:15:33.419Z,99777.38
2023-03-15T08:18:05.846Z,99783.14
2023-03-15T08:20:37.314Z,99790.39
2023-03-15T08:23:09.399Z,99793.55
2023-03-15T08:25:41.856Z,99793.16
2023-03-15T08:28:13.184Z,99799.56
2023-03-15T08:30:44.167Z,99805.63
2023-03-15T08:33:15.076Z,99817.83
2023-03-15T08:35:46.114Z,99820.52
2023-03-15T08:38:16.937Z,99822.73
2023-03-15T08:40:47.954Z,99827.83
2023-03-15T08:43:18.794Z,99827.13
2023-03-15T08:46:00.586Z,99834.21
2023-03-15T08:48:32.702Z,99835.09
2023-03-15T08:51:08.050Z,99840.70
2023-03-15T08:53:38.986Z,99843.27
2023-03-15T08:56:10.583Z,99846.48
2023-03-15T08:58:41.660Z,99843.81
2023-03-15T09:01:13.795Z,99849.08
2023-03-15T09:03:44.824Z,99851.61
2023-03-15T09:06:15.757Z,99857.89
2023-03-15T09:08:47.046Z,99860.33
2023-03-15T09:11:17.920Z,99860.92
2023-03-15T09:13:49.090Z,99869.77
2023-03-15T09:16:20.043Z,99874.57
2023-03-15T09:18:51.119Z,99875.43
2023-03-15T09:21:22.018Z,99869.19
2023-03-15T09:23:53.078Z,99873.17
2023-03-15T09:26:24.269Z,99878.89
2023-03-15T09:28:55.209Z,99884.61
2023-03-15T09:31:26.362Z,99888.19
2023-03-15T09:33:58.737Z,99892.96
2023-03-15T09:36:29.630Z,99888.48
2023-03-15T09:39:01.762Z,99891.90
2023-03-15T09:41:44.495Z,99891.27
2023-03-15T09:44:31.753Z,99889.71
2023-03-15T09:47:16.198Z,99888.77
2023-03-15T09:49:53.219Z,99887.39
2023-03-15T09:52:33.240Z,99885.83
2023-03-15T09:55:11.299Z,99879.88
2023-03-15T09:57:48.669Z,99879.27
2023-03-15T10:00:23.354Z,99878.10
2023-03-15T10:03:01.694Z,99876.60
2023-03-15T10:05:45.651Z,99870.96
2023-03-15T10:08:39.870Z,99878.04
2023-03-15T10:15:23.759Z,99876.94
2023-03-15T10:18:11.609Z,99878.42
2023-03-15T10:20:46.574Z,99880.70
2023-03-15T10:23:21.348Z,99883.10
2023-03-15T10:25:54.676Z,99885.69
2023-03-15T10:28:31.267Z,99886.89
2023-03-15T10:31:22.273Z,99889.61
2023-03-15T10:34:00.734Z,99891.89
2023-03-15T10:36:31.613Z,99893.61
2023-03-15T10:39:03.625Z,99889.14
2023-03-15T10:41:41.745Z,99884.15
2023-03-15T10:44:17.235Z,99879.63
2023-03-15T10:47:16.020Z,99885.23
2023-03-15T10:49:56.661Z,99883.63
2023-03-15T10:52:36.288Z,99876.09
2023-03-15T10:55:21.841Z,99875.72
2023-03-15T10:57:57.592Z,99881.66
2023-03-15T11:00:32.976Z,99886.85
2023-03-15T11:03:09.492Z,99882.35
2023-03-15T11:05:47.087Z,99888.38
2023-03-15T11:08:19.711Z,99891.70
2023-03-15T11:10:58.755Z,99887.75
2023-03-15T11:13:31.560Z,99884.30
2023-03-15T11:16:09.923Z,99890.42
2023-03-15T11:18:48.062Z,99887.73
2023-03-15T11:21:21.747Z,99888.41
2023-03-15T11:23:54.138Z,99896.97
2023-03-15T11:26:32.681Z,99894.44
2023-03-15T11:29:09.282Z,99894.62
2023-03-15T11:31:40.724Z,99894.05
2023-03-15T11:34:18.913Z,99895.42
2023-03-15T11:37:07.271Z,99897.71
2023-03-15T11:39:45.287Z,99894.31
2023-03-15T11:42:24.915Z,99892.52
2023-03-15T11:45:00.654Z,99901.64
2023-03-15T11:47:41.271Z,99895.91
2023-03-15T11:50:15.689Z,99895.36
2023-03-15T11:52:51.468Z,99898.53
2023-03-15T11:55:26.531Z,99899.39
2023-03-15T11:57:58.732Z,99901.17
2023-03-15T12:00:54.899Z,99901.98
2023-03-15T12:03:43.486Z,99906.04
2023-03-15T12:06:36.895Z,99908.89
2023-03-15T12:09:42.138Z,99910.92
2023-03-15T12:12:41.587Z,99914.58
2023-03-15T12:15:49.954Z,99920.16
2023-03-15T12:18:33.259Z,99915.43
2023-03-15T12:21:15.054Z,99925.91
2023-03-15T12:23:50.508Z,99927.44
2023-03-15T12:26:32.037Z,99924.39
2023-03-15T12:29:19.910Z,99931.00
2023-03-15T12:32:07.599Z,99930.80
2023-03-15T12:34:50.241Z,99933.95
2023-03-15T12:37:24.901Z,99942.15
2023-03-15T12:40:05.510Z,99943.84
2023-03-15T12:43:04.304Z,99940.96
2023-03-15T12:45:41.637Z,99949.35
2023-03-15T12:48:24.456Z,99954.65
2023-03-15T12:51:01.340Z,99954.82
2023-03-15T12:53:43.555Z,99956.22
2023-03-15T12:56:35.788Z,99958.55
2023-03-15T12:59:30.116Z,99967.85
2023-03-15T13:02:03.249Z,99972.39
2023-03-15T13:04:34.400Z,99977.59
2023-03-15T13:07:36.857Z,99981.05
2023-03-15T13:10:37.103Z,99986.92
2023-03-15T13:13:15.824Z,99986.17
2023-03-15T13:15:56.098Z,99987.98
2023-03-15T13:18:30.330Z,99995.77
2023-03-15T13:21:13.526Z,100000.85
2023-03-15T13:23:50.311Z,100004.86
2023-03-15T13:26:40.317Z,100011.94
2023-03-15T13:29:17.687Z,100009.61
2023-03-15T13:32:00.626Z,100006.09
2023-03-15T13:34:34.681Z,100007.52
2023-03-15T13:37:05.591Z,100013.54
2023-03-15T13:39:37.344Z,100015.58
2023-03-15T13:42:19.261Z,100016.61
2023-03-15T13:44:49.970Z,100015.74
2023-03-15T13:47:23.247Z,100015.42
2023-03-15T13:49:57.606Z,100018.34
2023-03-15T13:52:28.481Z,100018.50
2023-03-15T13:55:00.667Z,100020.04
2023-03-15T13:57:32.110Z,100020.02
2023-03-15T14:00:10.870Z,100021.02
2023-03-15T14:02:49.678Z,100025.09
2023-03-15T14:05:27.379Z,100027.60
2023-03-15T14:08:04.135Z,100035.25
2023-03-15T14:10:37.050Z,100033.52
2023-03-15T14:13:25.774Z,100035.55
2023-03-15T14:16:01.752Z,100034.04
2023-03-15T14:18:36.827Z,100036.13
2023-03-15T14:21:14.768Z,100038.25
2023-03-15T14:23:47.761Z,100040.52
2023-03-15T14:26:22.480Z,100039.58
2023-03-15T14:28:57.502Z,100045.98
2023-03-15T14:31:32.458Z,100047.60
2023-03-15T14:34:17.000Z,100051.44
2023-03-15T14:36:48.639Z,100054.61
2023-03-15T14:39:26.139Z,100056.92
2023-03-15T14:41:57.188Z,100053.59
2023-03-15T14:44:28.174Z,100055.00
2023-03-15T14:46:59.181Z,100059.32
2023-03-15T14:49:30.505Z,100063.80
2023-03-15T14:52:03.931Z,100064.17
2023-03-15T14:54:35.493Z,100066.73
2023-03-15T14:57:07.500Z,100068.61
2023-03-15T14:59:38.230Z,100067.06
2023-03-15T15:02:15.135Z,100070.48
2023-03-15T15:04:48.239Z,100073.88
2023-03-15T15:07:20.687Z,100074.05
2023-03-15T15:09:52.493Z,100070.16
2023-03-15T15:12:23.214Z,100074.95
2023-03-15T15:14:53.988Z,100083.45
2023-03-15T15:17:24.724Z,100079.56
2023-03-15T15:19:55.441Z,100082.64
2023-03-15T15:22:26.202Z,100080.45
2023-03-15T15:24:59.899Z,100082.66
2023-03-15T15:27:30.619Z,100089.84
2023-03-15T15:30:01.348Z,100090.20
2023-03-15T15:32:34.025Z,100096.33
2023-03-15T15:35:05.155Z,100093.97
2023-03-15T15:37:36.090Z,100100.98
2023-03-15T15:40:11.948Z,100106.59
2023-03-15T15:42:42.730Z,100112.23
2023-03-15T15:45:16.768Z,100116.99
2023-03-15T15:47:48.170Z,100119.71
2023-03-15T15:50:21.180Z,100124.49
2023-03-15T15:52:53.911Z,100125.67
2023-03-15T15:55:28.676Z,100130.95
2023-03-15T15:57:59.704Z,100129.93
2023-03-15T16:00:31.449Z,100139.79
2023-03-15T16:03:02.416Z,100143.88
2023-03-15T16:05:33.774Z,100143.55
2023-03-15T16:08:06.708Z,100142.69
2023-03-15T16:10:38.128Z,100142.02
2023-03-15T16:13:11.380Z,100147.95
2023-03-15T16:15:42.404Z,100151.53
2023-03-15T16:18:14.105Z,100154.91
2023-03-15T16:20:45.296Z,100158.99
2023-03-15T16:23:22.042Z,100160.17
2023-03-15T16:25:55.624Z,100165.08
2023-03-15T16:28:27.086Z,100168.98
2023-03-15T16:30:58.427Z,100166.92
2023-03-15T16:33:29.128Z,100170.65
2023-03-15T16:35:59.963Z,100172.86
2023-03-15T16:38:34.116Z,100178.27
2023-03-15T16:41:05.126Z,100177.76
2023-03-15T16:43:36.546Z,100181.14
2023-03-15T16:46:15.270Z,100179.58
2023-03-15T16:48:46.580Z,100178.02
2023-03-15T16:51:18.321Z,100188.19
2023-03-15T16:53:49.358Z,100189.02
2023-03-15T16:56:20.135Z,100194.09
2023-03-15T16:58:57.368Z,100199.84
2023-03-15T17:01:28.195Z,100202.34
2023-03-15T17:03:59.398Z,100207.06
2023-03-15T17:06:31.605Z,100206.52
2023-03-15T17:09:05.057Z,100209.39
2023-03-15T17:11:44.747Z,100211.89
2023-03-15T17:14:19.369Z,100214.41
2023-03-15T17:16:50.204Z,100217.08
2023-03-15T17:19:24.383Z,100218.20
2023-03-15T17:21:55.694Z,100219.17
2023-03-15T17:24:28.105Z,100216.57
2023-03-15T17:26:58.957Z,100218.73
2023-03-15T17:29:30.002Z,100222.73
2023-03-15T17:32:00.806Z,100222.36
2023-03-15T17:34:35.779Z,100222.64
2023-03-15T17:37:07.721Z,100227.70
2023-03-15T17:39:40.484Z,100228.51
2023-03-15T17:42:15.586Z,100228.79
2023-03-15T17:44:46.562Z,100233.33
2023-03-15T17:47:17.465Z,100239.88
2023-03-15T17:49:48.388Z,100244.23
2023-03-15T17:52:20.930Z,100241.14
2023-03-15T17:54:52.006Z,100242.63
2023-03-15T17:57:22.868Z,100243.59
2023-03-15T17:59:53.775Z,100249.14
2023-03-15T18:02:32.762Z,100250.45
2023-03-15T18:05:04.596Z,100253.45
2023-03-15T18:07:36.097Z,100257.46
2023-03-15T18:10:08.604Z,100264.70
2023-03-15T18:12:39.703Z,100265.49
2023-03-15T18:15:15.183Z,100266.11
2023-03-15T18:17:46.645Z,100262.30
2023-03-15T18:20:19.241Z,100263.92
2023-03-15T18:22:50.665Z,100272.33
2023-03-15T18:25:27.062Z,100272.07
2023-03-15T18:27:58.206Z,100273.52
2023-03-15T18:30:31.733Z,100280.36
2023-03-15T18:33:04.004Z,100281.46
2023-03-15T18:35:37.077Z,100284.63
2023-03-15T18:38:25.288Z,100292.85
2023-03-15T18:40:57.596Z,100296.17
2023-03-15T18:43:29.677Z,100301.05
2023-03-15T18:46:00.942Z,100304.55
2023-03-15T18:48:40.616Z,100306.70
2023-03-15T18:58:57.202Z,100306.48
2023-03-15T19:01:29.027Z,100304.02
2023-03-15T19:04:28.612Z,100306.84
2023-03-15T19:06:59.729Z,100308.59
2023-03-15T19:09:33.299Z,100313.97
2023-03-15T19:12:04.715Z,100314.42
2023-03-15T19:14:38.887Z,100316.73
2023-03-15T19:17:09.974Z,100317.17
2023-03-15T19:19:41.251Z,100318.83
2023-03-15T19:22:12.479Z,100324.55
2023-03-15T19:24:43.502Z,100327.56
2023-03-15T19:27:15.527Z,100329.84
2023-03-15T19:29:47.210Z,100332.38
2023-03-15T19:32:18.537Z,100330.64
2023-03-15T19:34:49.722Z,100334.67
2023-03-15T19:37:21.745Z,100332.22
2023-03-15T19:39:53.815Z,100339.30
2023-03-15T19:42:24.978Z,100340.27
2023-03-15T19:44:56.107Z,100339.70
2023-03-15T19:47:27.259Z,100340.67
2023-03-15T19:50:21.966Z,100336.56
2023-03-15T19:52:54.721Z,100339.16
2023-03-15T19:55:30.383Z,100339.08
2023-03-15T19:58:05.301Z,100343.30
2023-03-15T20:00:36.611Z,100341.05
2023-03-15T20:03:07.592Z,100341.22
2023-03-15T20:05:38.734Z,100344.58
2023-03-15T20:08:10.531Z,100345.89
2023-03-15T20:10:41.651Z,100350.20
2023-03-15T20:13:14.916Z,100351.17
2023-03-15T20:15:46.138Z,100351.15
2023-03-15T20:18:18.537Z,100349.60
2023-03-15T20:20:49.332Z,100351.45
2023-03-15T20:23:20.232Z,100353.11
2023-03-15T20:25:51.625Z,100355.82
2023-03-15T20:28:22.930Z,100358.85
2023-03-15T20:30:54.062Z,100360.88
2023-03-15T20:33:25.775Z,100363.09
2023-03-15T20:35:56.647Z,100368.83
2023-03-15T20:38:28.428Z,100366.09
2023-03-15T20:40:59.566Z,100368.46
2023-03-15T20:43:31.380Z,100368.73
2023-03-15T20:46:04.391Z,100372.27
2023-03-15T20:48:37.807Z,100369.89
2023-03-15T20:51:08.894Z,100367.85
2023-03-15T20:53:39.799Z,100372.71
2023-03-15T20:56:11.337Z,100374.86
2023-03-15T20:58:42.569Z,100379.23
2023-03-15T21:01:16.871Z,100378.35
2023-03-15T21:03:48.592Z,100379.52
2023-03-15T21:06:19.680Z,100383.83
2023-03-15T21:08:50.681Z,100383.34
2023-03-15T21:11:21.668Z,100388.23
2023-03-15T21:13:53.217Z,100387.55
2023-03-15T21:16:26.060Z,100389.46
2023-03-15T21:19:20.352Z,100389.66
2023-03-15T21:21:51.266Z,100395.26
2023-03-15T21:24:22.307Z,100393.61
2023-03-15T21:26:54.913Z,100394.00
2023-03-15T21:29:25.849Z,100397.58
2023-03-15T21:31:56.827Z,100408.94
2023-03-15T21:34:28.678Z,100410.52
2023-03-15T21:36:59.548Z,100410.60
2023-03-15T21:39:30.522Z,100407.75
2023-03-15T21:42:01.685Z,100408.76
2023-03-15T21:44:59.457Z,100418.96
2023-03-15T21:47:33.561Z,100415.77
2023-03-15T21:50:05.562Z,100419.07
2023-03-15T21:52:36.495Z,100417.42
2023-03-15T21:55:09.106Z,100420.70
2023-03-15T21:57:47.357Z,100422.63
2023-03-15T22:00:20.486Z,100424.71
2023-03-15T22:02:55.634Z,100424.63
2023-03-15T22:05:27.064Z,100426.05
2023-03-15T22:07:57.972Z,100426.25
2023-03-15T22:10:28.936Z,100434.06
2023-03-15T22:12:59.755Z,100433.57
2023-03-15T22:15:31.026Z,100435.96
2023-03-15T22:18:02.341Z,100435.80
2023-03-15T22:20:33.933Z,100434.80
2023-03-15T22:23:05.097Z,100440.05
2023-03-15T22:25:38.722Z,100439.31
2023-03-15T22:28:09.881Z,100447.56
2023-03-15T22:30:41.044Z,100456.65
2023-03-15T22:33:11.967Z,100454.52
2023-03-15T22:35:42.886Z,100456.74
2023-03-15T22:38:13.672Z,100457.98
2023-03-15T22:40:44.460Z,100460.23
2023-03-15T22:43:15.116Z,100465.23
2023-03-15T22:45:46.427Z,100470.55
2023-03-15T22:48:17.384Z,100470.15
2023-03-15T22:50:48.274Z,100469.73
2023-03-15T22:53:19.369Z,100472.02
2023-03-15T22:55:50.069Z,100475.31
2023-03-15T22:58:20.919Z,100477.45
2023-03-15T23:00:52.000Z,100480.20
2023-03-15T23:03:22.863Z,100482.47
2023-03-15T23:05:53.783Z,100485.24
2023-03-15T23:08:24.869Z,100489.21
2023-03-15T23:10:57.674Z,100490.73
2023-03-15T23:13:28.467Z,100492.75
2023-03-15T23:15:59.269Z,100493.12
2023-03-15T23:18:34.253Z,100493.84
2023-03-15T23:21:10.229Z,100496.27
2023-03-15T23:23:43.905Z,100500.38
2023-03-15T23:26:16.739Z,100504.80
2023-03-15T23:28:47.953Z,100508.30
2023-03-15T23:31:19.494Z,100509.45
2023-03-15T23:33:50.305Z,100510.13
2023-03-15T23:36:21.270Z,100510.00
2023-03-15T23:38:53.389Z,100512.46
2023-03-15T23:41:24.496Z,100518.09
2023-03-15T23:43:55.373Z,100519.98
2023-03-15T23:46:26.739Z,100516.79
2023-03-15T23:48:57.692Z,100524.21
2023-03-15T23:51:28.676Z,100522.35
2023-03-15T23:53:59.468Z,100521.90
2023-03-15T23:56:30.988Z,100526.42
2023-03-15T23:59:01.935Z,100528.31
